Time;durP1;ratioP1;P1;durP2;ratioP2;P2;SDS_P1;SDS_P2;PMS_P1;PMS_P2;Temp;Humidity;BMP_temperature;BMP_pressure;BME280_temperature;BME280_humidity;BME280_pressure;Samples;Min_cycle;Max_cycle;Signal;HPM_P1;HPM_P2
2022/07/05 16:04:07;;;;;;;2.50;2.03;;;;;;;;;;6247217;23;20024;-80
2022/07/05 16:06:34;;;;;;;3.60;1.98;;;;;;;;;;6246963;23;20008;-76
2022/07/05 16:09:00;;;;;;;3.53;1.80;;;;;;;;;;6246925;23;20433;-78
2022/07/05 16:11:26;;;;;;;3.78;2.30;;;;;;;;;;6221046;23;20012;-77
2022/07/05 16:13:52;;;;;;;2.97;2.20;;;;;;;;;;6248092;23;20421;-80
2022/07/05 16:16:18;;;;;;;2.60;2.40;;;;;;;;;;6221277;23;20450;-79
2022/07/05 16:18:45;;;;;;;5.63;2.42;;;;;;;;;;6248343;23;20014;-78
2022/07/05 16:21:13;;;;;;;4.15;2.85;;;;;;;;;;6221140;23;20000;-78
2022/07/05 16:23:40;;;;;;;4.75;3.50;;;;;;;;;;6246180;23;20004;-80
2022/07/05 16:26:07;;;;;;;4.38;3.40;;;;;;;;;;6220896;23;20035;-81
2022/07/05 16:28:34;;;;;;;4.82;2.92;;;;;;;;;;6221107;23;20167;-79
2022/07/05 16:31:02;;;;;;;2.95;2.60;;;;;;;;;;6221154;23;20024;-79
2022/07/05 16:33:55;;;;;;;2.80;2.60;;;;;;;;;;6220996;23;20091;-79
2022/07/05 16:36:22;;;;;;;3.42;2.80;;;;;;;;;;6217033;23;20035;-80
2022/07/05 16:38:49;;;;;;;2.85;2.40;;;;;;;;;;6220957;23;20004;-78
2022/07/05 16:41:16;;;;;;;2.97;2.35;;;;;;;;;;6247674;23;20303;-80
2022/07/05 16:43:43;;;;;;;2.97;2.30;;;;;;;;;;6220632;23;20154;-79
2022/07/05 16:46:13;;;;;;;3.25;2.50;;;;;;;;;;6247529;23;20000;-75
2022/07/05 16:48:39;;;;;;;3.13;2.40;;;;;;;;;;6220832;23;20038;-79
2022/07/05 16:51:09;;;;;;;2.90;2.42;;;;;;;;;;6248022;23;20107;-81
2022/07/05 16:53:36;;;;;;;4.22;2.55;;;;;;;;;;6220579;23;20000;-79
2022/07/05 16:56:10;;;;;;;2.30;2.10;;;;;;;;;;6220783;23;20004;-76
2022/07/05 16:58:39;;;;;;;3.45;2.75;;;;;;;;;;6220735;23;20000;-80
2022/07/05 17:01:07;;;;;;;3.80;2.58;;;;;;;;;;6220644;23;20016;-77
2022/07/05 17:03:34;;;;;;;4.13;2.75;;;;;;;;;;6220846;23;20081;-76
2022/07/05 17:06:00;;;;;;;3.08;2.60;;;;;;;;;;6220508;23;20004;-75
2022/07/05 17:08:26;;;;;;;3.15;2.72;;;;;;;;;;6220583;23;20023;-76
2022/07/05 17:10:52;;;;;;;4.85;2.83;;;;;;;;;;6247478;23;20008;-79
2022/07/05 17:13:19;;;;;;;3.60;2.50;;;;;;;;;;6220592;23;20083;-78
2022/07/05 17:15:45;;;;;;;6.80;2.97;;;;;;;;;;6220296;23;20073;-82
2022/07/05 17:18:11;;;;;;;5.05;2.95;;;;;;;;;;6220817;23;20053;-79
2022/07/05 17:20:37;;;;;;;4.80;3.40;;;;;;;;;;6247720;23;20004;-83
2022/07/05 17:23:03;;;;;;;3.30;3.00;;;;;;;;;;6220445;23;20000;-82
2022/07/05 17:25:29;;;;;;;3.55;3.10;;;;;;;;;;6220382;23;20342;-82
2022/07/05 17:27:55;;;;;;;3.65;2.80;;;;;;;;;;6220149;23;20010;-80
2022/07/05 17:30:21;;;;;;;2.90;2.60;;;;;;;;;;6220059;23;20016;-81
2022/07/05 17:32:47;;;;;;;5.57;3.10;;;;;;;;;;6220510;23;20000;-79
2022/07/05 17:35:14;;;;;;;2.92;2.58;;;;;;;;;;6220420;23;20008;-81
2022/07/05 17:37:40;;;;;;;4.82;2.55;;;;;;;;;;6220436;23;20004;-80
2022/07/05 17:40:07;;;;;;;4.75;2.58;;;;;;;;;;6220164;23;20006;-77
2022/07/05 17:42:33;;;;;;;4.13;2.92;;;;;;;;;;6220283;23;20314;-79
2022/07/05 17:44:59;;;;;;;4.65;3.05;;;;;;;;;;6247309;23;20071;-80
2022/07/05 17:47:25;;;;;;;2.90;2.60;;;;;;;;;;6220238;23;20493;-79
2022/07/05 17:49:51;;;;;;;4.38;3.50;;;;;;;;;;6220228;23;20338;-79
2022/07/05 17:52:18;;;;;;;5.05;3.22;;;;;;;;;;6247280;23;20008;-80
2022/07/05 17:54:45;;;;;;;5.03;3.78;;;;;;;;;;6220529;23;20000;-75
2022/07/05 17:57:11;;;;;;;6.38;3.72;;;;;;;;;;6220265;23;20015;-73
2022/07/05 17:59:38;;;;;;;4.05;3.10;;;;;;;;;;6220262;23;20011;-73
2022/07/05 18:02:04;;;;;;;3.72;3.00;;;;;;;;;;6219882;23;20024;-73
2022/07/05 18:04:31;;;;;;;4.07;3.30;;;;;;;;;;6246982;23;20318;-79
2022/07/05 18:06:57;;;;;;;6.53;3.33;;;;;;;;;;6220116;23;20009;-71
2022/07/05 18:09:23;;;;;;;3.22;2.85;;;;;;;;;;6246745;23;20071;-78
2022/07/05 18:11:50;;;;;;;5.22;3.17;;;;;;;;;;6220072;23;20008;-80
2022/07/05 18:14:17;;;;;;;4.22;3.67;;;;;;;;;;6220049;23;20047;-80
2022/07/05 18:16:43;;;;;;;3.83;3.15;;;;;;;;;;6247030;23;20000;-81
2022/07/05 18:19:09;;;;;;;5.60;3.58;;;;;;;;;;6219356;23;20008;-80
2022/07/05 18:21:36;;;;;;;3.85;3.45;;;;;;;;;;6218993;23;20008;-79
2022/07/05 18:24:02;;;;;;;4.05;3.30;;;;;;;;;;6219777;23;20438;-80
2022/07/05 18:26:28;;;;;;;4.32;3.42;;;;;;;;;;6219874;23;20000;-79
2022/07/05 18:28:55;;;;;;;4.45;2.80;;;;;;;;;;6219527;23;20028;-80
2022/07/05 18:31:22;;;;;;;3.85;2.60;;;;;;;;;;6219430;23;20345;-79
2022/07/05 18:33:49;;;;;;;5.03;2.97;;;;;;;;;;6219490;23;20475;-78
2022/07/05 18:36:15;;;;;;;5.05;3.20;;;;;;;;;;6219324;23;20013;-79
2022/07/05 18:38:41;;;;;;;4.97;3.08;;;;;;;;;;6219499;23;20082;-79
2022/07/05 18:41:08;;;;;;;2.75;2.50;;;;;;;;;;6219510;23;20471;-80
2022/07/05 18:43:37;;;;;;;4.00;2.75;;;;;;;;;;6227792;23;20035;-86
2022/07/05 18:46:03;;;;;;;5.13;3.20;;;;;;;;;;6229866;23;20012;-87
2022/07/05 18:48:29;;;;;;;6.03;3.10;;;;;;;;;;6221566;23;20000;-80
2022/07/05 18:50:55;;;;;;;3.95;2.85;;;;;;;;;;6221939;23;20035;-83
2022/07/05 18:53:21;;;;;;;5.50;2.80;;;;;;;;;;6220636;23;20365;-83
2022/07/05 18:55:47;;;;;;;3.20;2.70;;;;;;;;;;6220344;23;20098;-81
2022/07/05 18:58:20;;;;;;;4.80;2.78;;;;;;;;;;6222600;23;20062;-82
2022/07/05 19:00:47;;;;;;;3.53;2.88;;;;;;;;;;6221161;23;20014;-81
2022/07/05 19:03:13;;;;;;;4.13;3.35;;;;;;;;;;6221779;23;20066;-84
2022/07/05 19:13:40;;;;;;;3.88;3.00;;;;;;;;;;6221785;23;20074;-94
2022/07/05 19:13:57;;;;;;;6.18;3.00;;;;;;;;;;6250450;23;20062;-86
2022/07/05 19:16:24;;;;;;;4.72;3.05;;;;;;;;;;6223914;23;20008;-83
2022/07/05 19:18:51;;;;;;;3.20;2.88;;;;;;;;;;6225829;23;20000;-85
2022/07/05 19:21:18;;;;;;;3.95;2.60;;;;;;;;;;6238886;23;20337;-87
2022/07/05 19:23:45;;;;;;;5.07;3.10;;;;;;;;;;6227576;23;20011;-85
2022/07/05 19:26:11;;;;;;;8.30;3.75;;;;;;;;;;6221713;23;20031;-87
2022/07/05 19:28:38;;;;;;;5.13;3.70;;;;;;;;;;6230651;23;20051;-89
2022/07/05 19:31:04;;;;;;;5.20;3.35;;;;;;;;;;6222712;23;20403;-88
2022/07/05 19:33:30;;;;;;;6.07;3.55;;;;;;;;;;6221324;23;20000;-81
2022/07/05 19:35:57;;;;;;;6.65;3.78;;;;;;;;;;6252506;23;20007;-82
2022/07/05 19:38:23;;;;;;;3.78;3.15;;;;;;;;;;6232940;23;20013;-80
2022/07/05 19:40:49;;;;;;;4.80;3.53;;;;;;;;;;6223252;23;20096;-82
2022/07/05 19:43:18;;;;;;;4.78;3.45;;;;;;;;;;6220516;23;20004;-82
2022/07/05 19:45:44;;;;;;;4.82;3.13;;;;;;;;;;6221046;23;20012;-82
2022/07/05 19:48:12;;;;;;;4.38;3.53;;;;;;;;;;6221379;23;20004;-82
2022/07/05 19:50:39;;;;;;;3.78;3.10;;;;;;;;;;6248612;23;20018;-83
2022/07/05 19:53:07;;;;;;;5.57;3.17;;;;;;;;;;6247435;23;20046;-83
2022/07/05 19:55:40;;;;;;;3.78;3.03;;;;;;;;;;6221088;23;20103;-85
2022/07/05 19:58:18;;;;;;;5.90;3.63;;;;;;;;;;6221543;23;20008;-84
2022/07/05 20:00:44;;;;;;;3.60;3.30;;;;;;;;;;6221204;23;20035;-83
2022/07/05 20:03:10;;;;;;;5.75;3.20;;;;;;;;;;6254494;23;20023;-84
2022/07/05 20:05:36;;;;;;;5.97;3.58;;;;;;;;;;6225470;23;20008;-84
2022/07/05 20:08:03;;;;;;;6.70;3.53;;;;;;;;;;6239887;23;20020;-86
2022/07/05 20:10:30;;;;;;;4.13;3.45;;;;;;;;;;6240385;23;20063;-84
2022/07/05 20:12:56;;;;;;;6.13;3.97;;;;;;;;;;6241901;23;20095;-88
2022/07/05 20:15:22;;;;;;;6.88;4.07;;;;;;;;;;6244605;23;19993;-83
2022/07/05 20:17:55;;;;;;;4.55;3.88;;;;;;;;;;6240806;23;20011;-88
2022/07/05 20:20:24;;;;;;;7.68;4.25;;;;;;;;;;6239715;23;20009;-81
2022/07/05 20:22:50;;;;;;;9.07;5.15;;;;;;;;;;6241050;23;20013;-84
2022/07/05 20:25:16;;;;;;;7.75;5.00;;;;;;;;;;6240658;22;20056;-83
2022/07/05 20:27:43;;;;;;;6.60;5.15;;;;;;;;;;6244075;23;19992;-82
2022/07/05 20:30:09;;;;;;;6.60;4.22;;;;;;;;;;6242557;23;19999;-82
2022/07/05 20:32:35;;;;;;;6.05;4.97;;;;;;;;;;6244315;23;20015;-90
2022/07/05 20:35:01;;;;;;;5.10;4.20;;;;;;;;;;6242198;23;20006;-85
2022/07/05 20:37:30;;;;;;;4.65;3.35;;;;;;;;;;6271548;23;20043;-87
2022/07/05 20:40:00;;;;;;;4.93;4.43;;;;;;;;;;6244207;22;20059;-83
2022/07/05 20:42:26;;;;;;;5.03;4.30;;;;;;;;;;6243988;23;20326;-84
2022/07/05 20:44:52;;;;;;;5.20;4.57;;;;;;;;;;6244960;23;20004;-85
2022/07/05 20:47:18;;;;;;;5.18;4.28;;;;;;;;;;6239645;23;20001;-79
2022/07/05 20:49:54;;;;;;;5.85;4.53;;;;;;;;;;6243742;23;20008;-87
2022/07/05 20:52:22;;;;;;;5.35;4.03;;;;;;;;;;6245489;22;19999;-82
2022/07/05 20:54:54;;;;;;;5.13;3.55;;;;;;;;;;6245124;23;20032;-83
2022/07/05 20:57:21;;;;;;;5.80;3.58;;;;;;;;;;6270259;23;19996;-81
2022/07/05 20:59:47;;;;;;;6.93;4.28;;;;;;;;;;6241609;23;19992;-86
2022/07/05 21:02:13;;;;;;;4.43;3.70;;;;;;;;;;6242039;23;20038;-85
2022/07/05 21:04:39;;;;;;;6.95;3.58;;;;;;;;;;6219886;23;19993;-85
2022/07/05 21:07:06;;;;;;;5.85;3.45;;;;;;;;;;6272738;23;19984;-85
2022/07/05 21:09:38;;;;;;;6.20;4.30;;;;;;;;;;6245207;23;20008;-83
2022/07/05 21:12:08;;;;;;;4.75;4.00;;;;;;;;;;6243568;23;20016;-82
2022/07/05 21:14:37;;;;;;;4.57;3.70;;;;;;;;;;6239557;23;20035;-83
2022/07/05 21:17:04;;;;;;;4.03;3.58;;;;;;;;;;6269332;23;20008;-83
2022/07/05 21:19:34;;;;;;;5.55;3.97;;;;;;;;;;6242871;23;20004;-81
2022/07/05 21:22:01;;;;;;;5.00;3.90;;;;;;;;;;6239036;23;20012;-84
2022/07/05 21:24:37;;;;;;;4.88;3.60;;;;;;;;;;6237879;23;20005;-93
2022/07/05 21:27:12;;;;;;;5.75;4.00;;;;;;;;;;6236977;22;20087;-85
2022/07/05 21:29:38;;;;;;;5.72;3.97;;;;;;;;;;6271716;22;20011;-85
2022/07/05 21:32:23;;;;;;;3.97;3.30;;;;;;;;;;6242054;22;20020;-85
2022/07/05 21:34:55;;;;;;;4.55;3.33;;;;;;;;;;6241004;22;20723;-86
2022/07/05 21:37:21;;;;;;;4.28;2.95;;;;;;;;;;6237808;23;20005;-83
2022/07/05 21:40:08;;;;;;;3.38;3.08;;;;;;;;;;6243089;23;20030;-84
2022/07/05 21:42:34;;;;;;;7.13;3.10;;;;;;;;;;6241771;23;20010;-83
2022/07/05 21:45:07;;;;;;;4.18;3.35;;;;;;;;;;6253125;23;20008;-85
2022/07/05 21:47:36;;;;;;;5.65;3.13;;;;;;;;;;6243843;22;20005;-92
2022/07/05 21:50:03;;;;;;;5.63;3.28;;;;;;;;;;6268585;23;20016;-85
2022/07/05 21:52:29;;;;;;;7.40;3.03;;;;;;;;;;6244226;23;20372;-85
2022/07/05 21:54:55;;;;;;;5.68;2.88;;;;;;;;;;6241654;23;20083;-85
2022/07/05 21:57:21;;;;;;;7.28;2.90;;;;;;;;;;6242955;22;20005;-92
2022/07/05 22:05:20;;;;;;;3.85;2.15;;;;;;;;;;6272269;22;19998;-84
2022/07/05 22:07:49;;;;;;;3.03;1.90;;;;;;;;;;6242945;22;20012;-83
2022/07/05 22:10:15;;;;;;;6.22;1.98;;;;;;;;;;6216065;23;20027;-84
2022/07/05 22:12:44;;;;;;;3.50;1.95;;;;;;;;;;6240780;23;20027;-85
2022/07/05 22:15:10;;;;;;;4.20;1.95;;;;;;;;;;6235328;23;20402;-83
2022/07/05 22:17:36;;;;;;;4.88;1.98;;;;;;;;;;6235414;23;20000;-84
2022/07/05 22:20:03;;;;;;;3.80;2.30;;;;;;;;;;6242775;23;20011;-84
2022/07/05 22:22:29;;;;;;;3.42;1.95;;;;;;;;;;6237382;23;20011;-84
2022/07/05 22:24:55;;;;;;;6.35;2.20;;;;;;;;;;6248656;23;20011;-92
2022/07/05 22:27:21;;;;;;;6.30;2.35;;;;;;;;;;6226222;23;20446;-85
2022/07/05 22:29:47;;;;;;;5.63;2.10;;;;;;;;;;6221000;23;20012;-84
2022/07/05 22:32:15;;;;;;;3.70;2.08;;;;;;;;;;6221155;23;20023;-84
2022/07/05 22:34:41;;;;;;;4.22;2.00;;;;;;;;;;6220597;23;20095;-84
2022/07/05 22:37:07;;;;;;;5.13;2.40;;;;;;;;;;6247724;23;20318;-83
2022/07/05 22:39:33;;;;;;;3.50;1.90;;;;;;;;;;6220597;23;20090;-85
2022/07/05 22:41:59;;;;;;;4.18;2.10;;;;;;;;;;6220926;23;20004;-84
2022/07/05 22:44:25;;;;;;;5.70;2.20;;;;;;;;;;6220910;23;20008;-84
2022/07/05 22:46:52;;;;;;;4.18;2.22;;;;;;;;;;6247821;23;20000;-84
2022/07/05 22:49:18;;;;;;;5.60;2.10;;;;;;;;;;6220623;23;20038;-84
2022/07/05 22:51:44;;;;;;;3.92;2.10;;;;;;;;;;6220659;23;20000;-84
2022/07/05 22:54:10;;;;;;;4.38;2.10;;;;;;;;;;6220795;23;20087;-84
2022/07/05 22:56:36;;;;;;;3.60;2.30;;;;;;;;;;6223342;23;20008;-84
2022/07/05 22:59:02;;;;;;;3.35;2.10;;;;;;;;;;6221298;23;20028;-91
2022/07/05 23:01:33;;;;;;;5.13;2.28;;;;;;;;;;6220949;23;20086;-91
2022/07/05 23:04:00;;;;;;;8.10;2.80;;;;;;;;;;6220510;23;20427;-84
2022/07/05 23:06:26;;;;;;;5.10;2.33;;;;;;;;;;6220454;23;20032;-84
2022/07/05 23:08:52;;;;;;;4.70;2.10;;;;;;;;;;6220840;23;20004;-84
2022/07/05 23:11:18;;;;;;;3.75;2.13;;;;;;;;;;6222988;23;20035;-84
2022/07/05 23:13:45;;;;;;;4.43;2.13;;;;;;;;;;6223446;23;20001;-84
2022/07/05 23:16:11;;;;;;;5.15;2.20;;;;;;;;;;6220321;23;20091;-85
2022/07/05 23:18:37;;;;;;;5.15;2.00;;;;;;;;;;6220569;23;20141;-84
2022/07/05 23:21:05;;;;;;;3.70;1.95;;;;;;;;;;6220308;23;20016;-84
2022/07/05 23:23:31;;;;;;;3.83;2.20;;;;;;;;;;6220718;23;20000;-84
2022/07/05 23:25:57;;;;;;;4.78;2.20;;;;;;;;;;6220544;23;20088;-84
2022/07/05 23:28:26;;;;;;;4.22;2.30;;;;;;;;;;6248280;23;20008;-91
2022/07/05 23:30:52;;;;;;;6.32;2.33;;;;;;;;;;6224675;23;20437;-83
2022/07/05 23:33:20;;;;;;;3.33;2.20;;;;;;;;;;6223398;23;20038;-84
2022/07/05 23:35:46;;;;;;;3.25;2.28;;;;;;;;;;6219805;23;20023;-84
2022/07/05 23:38:12;;;;;;;5.03;2.20;;;;;;;;;;6247085;23;20023;-89
2022/07/05 23:40:38;;;;;;;5.30;2.45;;;;;;;;;;6225561;23;20497;-84
2022/07/05 23:43:05;;;;;;;3.63;2.20;;;;;;;;;;6220813;23;20004;-85
2022/07/05 23:45:31;;;;;;;5.20;2.28;;;;;;;;;;6220674;23;20334;-84
2022/07/05 23:47:57;;;;;;;4.00;2.40;;;;;;;;;;6226789;23;20422;-83
2022/07/05 23:50:24;;;;;;;3.83;2.22;;;;;;;;;;6221586;23;20012;-84
2022/07/05 23:52:50;;;;;;;4.45;2.10;;;;;;;;;;6221075;23;20303;-84
2022/07/05 23:55:16;;;;;;;3.22;2.10;;;;;;;;;;6220876;23;20004;-84
2022/07/05 23:57:42;;;;;;;2.97;2.13;;;;;;;;;;6220859;23;20043;-84
